createdAt,value
2018-08-21T00:00:01.111Z,0
2018-08-21T00:00:27.244Z,0
2018-08-21T00:00:53.384Z,0
2018-08-21T00:01:19.550Z,0
2018-08-21T00:01:45.682Z,0
2018-08-21T00:02:11.822Z,0
2018-08-21T00:02:37.952Z,0
2018-08-21T00:03:04.091Z,0
2018-08-21T00:03:30.231Z,0
2018-08-21T00:03:56.397Z,0
2018-08-21T00:04:22.629Z,0
2018-08-21T00:04:48.760Z,0
2018-08-21T00:05:15.034Z,0
2018-08-21T00:05:41.170Z,0
2018-08-21T00:06:07.329Z,0
2018-08-21T00:06:33.469Z,0
2018-08-21T00:06:59.629Z,0
2018-08-21T00:07:25.772Z,0
2018-08-21T00:07:51.908Z,0
2018-08-21T00:08:18.044Z,0
2018-08-21T00:08:44.182Z,0
2018-08-21T00:09:10.322Z,0
2018-08-21T00:09:36.483Z,0
2018-08-21T00:10:02.621Z,0
2018-08-21T00:10:28.792Z,0
2018-08-21T00:10:54.943Z,0
2018-08-21T00:11:21.085Z,0
2018-08-21T00:11:47.228Z,0
2018-08-21T00:12:13.355Z,0
2018-08-21T00:12:39.497Z,0
2018-08-21T00:13:05.654Z,0
2018-08-21T00:13:31.796Z,0
2018-08-21T00:13:57.953Z,0
2018-08-21T00:14:24.118Z,0
2018-08-21T00:14:50.266Z,0
2018-08-21T00:15:16.402Z,0
2018-08-21T00:15:42.538Z,0
2018-08-21T00:16:08.686Z,0
2018-08-21T00:16:34.826Z,0
2018-08-21T00:17:00.958Z,0
2018-08-21T00:17:27.101Z,0
2018-08-21T00:17:53.237Z,0
2018-08-21T00:18:19.373Z,0
2018-08-21T00:18:45.531Z,0
2018-08-21T00:19:11.676Z,0
2018-08-21T00:19:37.809Z,0
2018-08-21T00:20:03.950Z,0
2018-08-21T00:20:30.089Z,0
2018-08-21T00:20:56.223Z,0
2018-08-21T00:21:22.379Z,0
2018-08-21T00:21:48.515Z,0
2018-08-21T00:22:14.689Z,0
2018-08-21T00:22:40.843Z,0
2018-08-21T00:23:07.005Z,0
2018-08-21T00:23:33.136Z,0
2018-08-21T00:23:59.298Z,0
2018-08-21T00:24:25.440Z,0
2018-08-21T00:24:51.578Z,0
2018-08-21T00:25:17.712Z,0
2018-08-21T00:25:43.844Z,0
2018-08-21T00:26:09.982Z,0
2018-08-21T00:26:36.140Z,0
2018-08-21T00:27:02.277Z,0
2018-08-21T00:27:28.409Z,0
2018-08-21T00:27:54.545Z,0
2018-08-21T00:28:20.702Z,0
2018-08-21T00:28:46.851Z,0
2018-08-21T00:29:12.989Z,0
2018-08-21T00:29:39.124Z,0
2018-08-21T00:30:05.258Z,0
2018-08-21T00:30:31.397Z,0
2018-08-21T00:30:57.540Z,0
2018-08-21T00:31:23.702Z,0
2018-08-21T00:31:49.866Z,0
2018-08-21T00:32:16.023Z,0
2018-08-21T00:32:42.177Z,0
2018-08-21T00:33:08.314Z,0
2018-08-21T00:33:34.449Z,0
2018-08-21T00:34:00.590Z,0
2018-08-21T00:34:26.754Z,0
2018-08-21T00:34:52.908Z,0
2018-08-21T00:35:19.042Z,0
2018-08-21T00:35:45.172Z,0
2018-08-21T00:36:11.315Z,0
2018-08-21T00:36:37.447Z,0
2018-08-21T00:37:03.585Z,0
2018-08-21T00:37:29.719Z,0
2018-08-21T00:37:55.863Z,0
2018-08-21T00:38:22.013Z,0
2018-08-21T00:38:48.154Z,0
2018-08-21T00:39:14.288Z,0
2018-08-21T00:39:40.421Z,0
2018-08-21T00:40:06.561Z,0
2018-08-21T00:40:32.715Z,0
2018-08-21T00:40:58.858Z,0
2018-08-21T00:41:25.000Z,0
2018-08-21T00:41:51.135Z,0
2018-08-21T00:42:17.317Z,0
2018-08-21T00:42:43.449Z,0
2018-08-21T00:43:09.582Z,0
2018-08-21T00:43:35.719Z,0
2018-08-21T00:44:01.854Z,0
2018-08-21T00:44:28.000Z,0
2018-08-21T00:44:54.131Z,0
2018-08-21T00:45:20.294Z,0
2018-08-21T00:45:46.427Z,0
2018-08-21T00:46:12.585Z,0
2018-08-21T00:46:38.724Z,0
2018-08-21T00:47:04.859Z,0
2018-08-21T00:47:30.995Z,0
2018-08-21T00:47:57.127Z,0
2018-08-21T00:48:23.255Z,0
2018-08-21T00:48:49.394Z,0
2018-08-21T00:49:15.528Z,0
2018-08-21T00:49:41.671Z,0
2018-08-21T00:50:07.800Z,0
2018-08-21T00:50:33.940Z,0
2018-08-21T00:51:00.074Z,0
2018-08-21T00:51:26.215Z,0
2018-08-21T00:51:52.348Z,0
2018-08-21T00:52:18.485Z,0
2018-08-21T00:52:44.648Z,0
2018-08-21T00:53:10.814Z,0
2018-08-21T00:53:36.975Z,0
2018-08-21T00:54:03.105Z,0
2018-08-21T00:54:29.243Z,0
2018-08-21T00:54:55.379Z,0
2018-08-21T00:55:21.536Z,0
2018-08-21T00:55:47.677Z,0
2018-08-21T00:56:13.833Z,0
2018-08-21T00:56:39.970Z,0
2018-08-21T00:57:06.141Z,0
2018-08-21T00:57:32.263Z,0
2018-08-21T00:57:58.405Z,0
2018-08-21T00:58:24.546Z,0
2018-08-21T00:58:50.709Z,0
2018-08-21T00:59:16.842Z,0
2018-08-21T00:59:42.977Z,0
2018-08-21T01:00:09.110Z,0
2018-08-21T01:00:35.263Z,0
2018-08-21T01:01:01.403Z,0
2018-08-21T01:01:27.570Z,0
2018-08-21T01:01:53.702Z,0
2018-08-21T01:02:19.835Z,0
2018-08-21T01:02:45.994Z,0
2018-08-21T01:03:12.135Z,0
2018-08-21T01:03:38.292Z,0
2018-08-21T01:04:04.437Z,0
2018-08-21T01:04:30.595Z,0
2018-08-21T01:04:56.725Z,0
2018-08-21T01:05:22.868Z,0
2018-08-21T01:05:49.005Z,0
2018-08-21T01:06:15.146Z,0
2018-08-21T01:06:41.300Z,0
2018-08-21T01:07:07.435Z,0
2018-08-21T01:07:33.567Z,0
2018-08-21T01:07:59.703Z,0
2018-08-21T01:08:25.838Z,0
2018-08-21T01:08:51.968Z,0
2018-08-21T01:09:18.102Z,0
2018-08-21T01:09:44.265Z,0
2018-08-21T01:10:10.400Z,0
2018-08-21T01:10:36.536Z,0
2018-08-21T01:11:02.697Z,0
2018-08-21T01:11:28.833Z,0
2018-08-21T01:11:54.986Z,0
2018-08-21T01:12:21.123Z,0
2018-08-21T01:12:47.300Z,0
2018-08-21T01:13:13.431Z,0
2018-08-21T01:13:39.568Z,0
2018-08-21T01:14:05.728Z,0
2018-08-21T01:14:31.867Z,0
2018-08-21T01:14:58.001Z,0
2018-08-21T01:15:24.133Z,0
2018-08-21T01:15:50.276Z,0
2018-08-21T01:16:16.414Z,0
2018-08-21T01:16:42.576Z,0
2018-08-21T01:17:08.712Z,0
2018-08-21T01:17:34.849Z,0
2018-08-21T01:18:01.009Z,0
2018-08-21T01:18:27.135Z,0
2018-08-21T01:18:53.271Z,0
2018-08-21T01:19:19.439Z,0
2018-08-21T01:19:45.571Z,0
2018-08-21T01:20:11.709Z,0
2018-08-21T01:20:37.845Z,0
2018-08-21T01:21:03.975Z,0
2018-08-21T01:21:30.129Z,0
2018-08-21T01:21:56.273Z,0
2018-08-21T01:22:22.404Z,0
2018-08-21T01:22:48.539Z,0
2018-08-21T01:23:14.675Z,0
2018-08-21T01:23:40.808Z,0
2018-08-21T01:24:06.936Z,0
2018-08-21T01:24:33.102Z,0
2018-08-21T01:24:59.239Z,0
2018-08-21T01:25:25.372Z,0
2018-08-21T01:25:51.505Z,0
2018-08-21T01:26:17.651Z,0
2018-08-21T01:26:43.781Z,0
2018-08-21T01:27:09.944Z,0
2018-08-21T01:27:36.106Z,0
2018-08-21T01:28:02.253Z,0
2018-08-21T01:28:28.378Z,0
2018-08-21T01:28:54.512Z,0
2018-08-21T01:29:20.647Z,0
2018-08-21T01:29:46.785Z,0
2018-08-21T01:30:12.926Z,0
2018-08-21T01:30:39.082Z,0
2018-08-21T01:31:05.215Z,0
2018-08-21T01:31:31.363Z,0
2018-08-21T01:31:57.545Z,0
2018-08-21T01:32:23.710Z,0
2018-08-21T01:32:49.840Z,0
2018-08-21T01:33:15.998Z,0
2018-08-21T01:33:42.133Z,0
2018-08-21T01:34:08.270Z,0
2018-08-21T01:34:34.409Z,0
2018-08-21T01:35:00.539Z,0
2018-08-21T01:35:26.669Z,0
2018-08-21T01:35:52.814Z,0
2018-08-21T01:36:18.987Z,0
2018-08-21T01:36:45.128Z,0
2018-08-21T01:37:11.253Z,0
2018-08-21T01:37:37.399Z,0
2018-08-21T01:38:03.548Z,0
2018-08-21T01:38:29.708Z,0
2018-08-21T01:38:55.848Z,0
2018-08-21T01:39:22.028Z,0
2018-08-21T01:39:48.170Z,0
2018-08-21T01:40:14.298Z,0
2018-08-21T01:40:40.440Z,0
2018-08-21T01:41:06.574Z,0
2018-08-21T01:41:32.710Z,0
2018-08-21T01:41:58.845Z,0
2018-08-21T01:42:24.978Z,0
2018-08-21T01:42:51.115Z,0
2018-08-21T01:43:17.250Z,0
2018-08-21T01:43:43.386Z,0
2018-08-21T01:44:09.550Z,0
2018-08-21T01:44:35.709Z,0
2018-08-21T01:45:01.840Z,0
2018-08-21T01:45:27.985Z,0
2018-08-21T01:45:54.119Z,0
2018-08-21T01:46:20.254Z,0
2018-08-21T01:46:46.387Z,0
2018-08-21T01:47:12.525Z,0
2018-08-21T01:47:38.709Z,0
2018-08-21T01:48:04.846Z,0
2018-08-21T01:48:30.984Z,0
2018-08-21T01:48:57.119Z,0
2018-08-21T01:49:23.274Z,0
2018-08-21T01:49:49.414Z,0
2018-08-21T01:50:15.571Z,0
2018-08-21T01:50:41.714Z,0
2018-08-21T01:51:07.843Z,0
2018-08-21T01:51:33.985Z,0
2018-08-21T01:52:00.124Z,0
2018-08-21T01:52:26.257Z,0
2018-08-21T01:52:52.397Z,0
2018-08-21T01:53:18.532Z,0
2018-08-21T01:53:44.672Z,0
2018-08-21T01:54:10.807Z,0
2018-08-21T01:54:36.999Z,0
2018-08-21T01:55:03.164Z,0
2018-08-21T01:55:29.300Z,0
2018-08-21T01:55:55.451Z,0
2018-08-21T01:56:21.586Z,0
2018-08-21T01:56:47.727Z,0
2018-08-21T01:57:13.867Z,0
2018-08-21T01:57:40.024Z,0
2018-08-21T01:58:06.156Z,0
2018-08-21T01:58:32.291Z,0
2018-08-21T01:58:58.431Z,0
2018-08-21T01:59:24.558Z,0
2018-08-21T01:59:50.691Z,0
2018-08-21T02:00:16.827Z,0
2018-08-21T02:00:42.965Z,0
2018-08-21T02:01:09.101Z,0
2018-08-21T02:01:35.240Z,0
2018-08-21T02:02:01.386Z,0
2018-08-21T02:02:27.513Z,0
2018-08-21T02:02:53.651Z,0
2018-08-21T02:03:19.786Z,0
2018-08-21T02:03:45.923Z,0
2018-08-21T02:04:12.055Z,0
2018-08-21T02:04:38.198Z,0
2018-08-21T02:05:04.339Z,0
2018-08-21T02:05:30.500Z,0
2018-08-21T02:05:56.641Z,0
2018-08-21T02:06:22.775Z,0
2018-08-21T02:06:48.913Z,0
2018-08-21T02:07:15.048Z,0
2018-08-21T02:07:41.212Z,0
2018-08-21T02:08:07.346Z,0
2018-08-21T02:08:33.488Z,0
2018-08-21T02:08:59.652Z,0
2018-08-21T02:09:25.818Z,0
2018-08-21T02:09:51.954Z,0
2018-08-21T02:10:18.112Z,0
2018-08-21T02:10:44.256Z,0
2018-08-21T02:11:10.436Z,0
2018-08-21T02:11:36.598Z,0
2018-08-21T02:12:02.758Z,0
2018-08-21T02:12:28.893Z,0
2018-08-21T02:12:55.033Z,0
2018-08-21T02:13:21.166Z,0
2018-08-21T02:13:47.307Z,0
2018-08-21T02:14:13.456Z,0
2018-08-21T02:14:39.621Z,0
2018-08-21T02:15:05.759Z,0
2018-08-21T02:15:31.909Z,0
2018-08-21T02:15:58.041Z,0
2018-08-21T02:16:24.180Z,0
2018-08-21T02:16:50.315Z,0
2018-08-21T02:17:16.451Z,0
2018-08-21T02:17:42.595Z,0
2018-08-21T02:18:08.733Z,0
2018-08-21T02:18:34.874Z,0
2018-08-21T02:19:01.035Z,0
2018-08-21T02:19:27.173Z,0
2018-08-21T02:19:53.310Z,0
2018-08-21T02:20:19.469Z,0
2018-08-21T02:20:45.602Z,0
2018-08-21T02:21:11.747Z,0
2018-08-21T02:21:37.882Z,0
2018-08-21T02:22:04.015Z,0
2018-08-21T02:22:30.151Z,0
2018-08-21T02:22:56.288Z,0
2018-08-21T02:23:22.419Z,0
2018-08-21T02:23:48.583Z,0
2018-08-21T02:24:14.722Z,0
2018-08-21T02:24:40.857Z,0
2018-08-21T02:25:06.994Z,0
2018-08-21T02:25:33.159Z,0
2018-08-21T02:25:59.321Z,0
2018-08-21T02:26:25.451Z,0
2018-08-21T02:26:51.607Z,0
2018-08-21T02:27:17.747Z,0
2018-08-21T02:27:43.877Z,0
2018-08-21T02:28:10.003Z,0
2018-08-21T02:28:36.145Z,0
2018-08-21T02:29:02.296Z,0
2018-08-21T02:29:28.473Z,0
2018-08-21T02:29:54.608Z,0
2018-08-21T02:30:20.798Z,0
2018-08-21T02:30:46.957Z,0
2018-08-21T02:31:13.090Z,0
2018-08-21T02:31:39.254Z,0
2018-08-21T02:32:05.390Z,0
2018-08-21T02:32:31.555Z,0
2018-08-21T02:32:57.690Z,0
2018-08-21T02:33:23.829Z,0
2018-08-21T02:33:49.994Z,0
2018-08-21T02:34:16.170Z,0
2018-08-21T02:34:42.358Z,0
2018-08-21T02:35:08.528Z,0
2018-08-21T02:35:34.656Z,0
2018-08-21T02:36:00.841Z,0
2018-08-21T02:36:27.010Z,0
2018-08-21T02:36:53.149Z,0
2018-08-21T02:37:19.335Z,0
2018-08-21T02:37:45.470Z,0
2018-08-21T02:38:11.625Z,0
2018-08-21T02:38:37.763Z,0
2018-08-21T02:39:03.927Z,0
2018-08-21T02:39:30.091Z,0
2018-08-21T02:39:56.229Z,0
2018-08-21T02:40:22.394Z,0
2018-08-21T02:40:48.537Z,0
2018-08-21T02:41:14.716Z,0
2018-08-21T02:41:40.844Z,0
2018-08-21T02:42:06.982Z,0
2018-08-21T02:42:33.134Z,0
2018-08-21T02:42:59.272Z,0
2018-08-21T02:43:25.419Z,0
2018-08-21T02:43:51.557Z,0
2018-08-21T02:44:17.698Z,0
2018-08-21T02:44:43.837Z,0
2018-08-21T02:45:09.965Z,0
2018-08-21T02:45:36.124Z,0
2018-08-21T02:46:02.311Z,0
2018-08-21T02:46:28.443Z,0
2018-08-21T02:46:54.581Z,0
2018-08-21T02:47:20.714Z,0
2018-08-21T02:47:46.882Z,0
2018-08-21T02:48:13.045Z,0
2018-08-21T02:48:39.205Z,0
2018-08-21T02:49:05.407Z,0
2018-08-21T02:49:31.542Z,0
2018-08-21T02:49:57.704Z,0
2018-08-21T02:50:23.867Z,0
2018-08-21T02:50:50.001Z,0
2018-08-21T02:51:16.139Z,0
2018-08-21T02:51:42.294Z,0
2018-08-21T02:52:08.431Z,0
2018-08-21T02:52:34.591Z,0
2018-08-21T02:53:00.756Z,0
2018-08-21T02:53:26.889Z,0
2018-08-21T02:53:53.032Z,0
2018-08-21T02:54:19.169Z,0
2018-08-21T02:54:45.303Z,0
2018-08-21T02:55:11.446Z,0
2018-08-21T02:55:37.574Z,0
2018-08-21T02:56:03.741Z,0
2018-08-21T02:56:29.897Z,0
2018-08-21T02:56:56.044Z,0
2018-08-21T02:57:22.177Z,0
2018-08-21T02:57:48.309Z,0
2018-08-21T02:58:14.452Z,0
2018-08-21T02:58:40.585Z,0
2018-08-21T02:59:06.761Z,0
2018-08-21T02:59:32.926Z,0
2018-08-21T02:59:59.085Z,0
2018-08-21T03:00:25.252Z,0
2018-08-21T03:00:51.418Z,0
2018-08-21T03:01:17.595Z,0
2018-08-21T03:01:43.736Z,0
2018-08-21T03:02:09.888Z,0
2018-08-21T03:02:36.059Z,0
2018-08-21T03:03:02.205Z,0
2018-08-21T03:03:28.359Z,0
2018-08-21T03:03:54.492Z,0
2018-08-21T03:04:20.681Z,0
2018-08-21T03:04:46.840Z,0
2018-08-21T03:05:12.973Z,0
2018-08-21T03:05:39.113Z,0
2018-08-21T03:06:05.249Z,0
2018-08-21T03:06:31.380Z,0
2018-08-21T03:06:57.522Z,0
2018-08-21T03:07:23.648Z,0
2018-08-21T03:07:49.792Z,0
2018-08-21T03:08:15.925Z,0
2018-08-21T03:08:42.065Z,0
2018-08-21T03:09:08.207Z,0
2018-08-21T03:09:34.340Z,0
2018-08-21T03:10:00.480Z,0
2018-08-21T03:10:26.612Z,0
2018-08-21T03:10:52.789Z,0
2018-08-21T03:11:18.928Z,0
2018-08-21T03:11:45.065Z,0
2018-08-21T03:12:11.226Z,0
2018-08-21T03:12:37.382Z,0
2018-08-21T03:13:03.519Z,0
2018-08-21T03:13:29.656Z,0
2018-08-21T03:13:55.795Z,0
2018-08-21T03:14:21.921Z,0
2018-08-21T03:14:48.059Z,0
2018-08-21T03:15:14.194Z,0
2018-08-21T03:15:40.355Z,0
2018-08-21T03:16:06.491Z,0
2018-08-21T03:16:32.626Z,0
2018-08-21T03:16:58.788Z,0
2018-08-21T03:17:24.947Z,0
2018-08-21T03:17:51.114Z,0
2018-08-21T03:18:17.249Z,0
2018-08-21T03:18:43.385Z,0
2018-08-21T03:19:09.541Z,0
2018-08-21T03:19:35.695Z,0
2018-08-21T03:20:01.829Z,0
2018-08-21T03:20:27.994Z,0
2018-08-21T03:20:54.157Z,0
2018-08-21T03:21:20.308Z,0
2018-08-21T03:21:46.530Z,0
2018-08-21T03:22:12.602Z,0
2018-08-21T03:22:38.794Z,0
2018-08-21T03:23:04.928Z,0
2018-08-21T03:23:31.075Z,0
2018-08-21T03:23:57.224Z,0
2018-08-21T03:24:23.376Z,0
2018-08-21T03:24:49.524Z,0
2018-08-21T03:25:15.652Z,0
2018-08-21T03:25:41.811Z,0
2018-08-21T03:26:07.945Z,0
2018-08-21T03:26:34.117Z,0
2018-08-21T03:27:00.260Z,0
2018-08-21T03:27:26.386Z,0
2018-08-21T03:27:52.523Z,0
2018-08-21T03:28:18.680Z,0
2018-08-21T03:28:44.845Z,0
2018-08-21T03:29:10.976Z,0
2018-08-21T03:29:37.123Z,0
2018-08-21T03:30:03.277Z,0
2018-08-21T03:30:29.451Z,0
2018-08-21T03:30:55.573Z,0
2018-08-21T03:31:21.759Z,0
2018-08-21T03:31:47.914Z,0
2018-08-21T03:32:14.056Z,0
2018-08-21T03:32:40.190Z,0
2018-08-21T03:33:06.355Z,0
2018-08-21T03:33:32.492Z,0
2018-08-21T03:33:58.618Z,0
2018-08-21T03:34:24.806Z,0
2018-08-21T03:34:50.939Z,0
2018-08-21T03:35:17.098Z,0
2018-08-21T03:35:43.234Z,0
2018-08-21T03:36:09.371Z,0
2018-08-21T03:36:35.535Z,0
2018-08-21T03:37:01.693Z,0
2018-08-21T03:37:27.825Z,0
2018-08-21T03:37:53.961Z,0
2018-08-21T03:38:20.090Z,0
2018-08-21T03:38:46.228Z,0
2018-08-21T03:39:12.385Z,0
2018-08-21T03:39:38.549Z,0
2018-08-21T03:40:04.682Z,0
2018-08-21T03:40:30.817Z,0
2018-08-21T03:40:56.947Z,0
2018-08-21T03:41:23.084Z,0
2018-08-21T03:41:49.219Z,0
2018-08-21T03:42:15.363Z,0
2018-08-21T03:42:41.496Z,0
2018-08-21T03:43:07.656Z,0
2018-08-21T03:43:33.812Z,0
2018-08-21T03:43:59.952Z,0
2018-08-21T03:44:26.083Z,0
2018-08-21T03:44:52.218Z,0
2018-08-21T03:45:18.380Z,0
2018-08-21T03:45:44.518Z,0
2018-08-21T03:46:10.647Z,0
2018-08-21T03:46:36.835Z,4
2018-08-21T03:47:03.019Z,4
2018-08-21T03:47:29.214Z,4
2018-08-21T03:47:55.317Z,4
2018-08-21T03:48:21.479Z,4
2018-08-21T03:48:47.613Z,4
2018-08-21T03:49:13.754Z,0
2018-08-21T03:49:39.911Z,4
2018-08-21T03:50:06.074Z,4
2018-08-21T03:50:32.210Z,4
2018-08-21T03:50:58.369Z,4
2018-08-21T03:51:24.512Z,4
2018-08-21T03:51:50.651Z,8
2018-08-21T03:52:16.781Z,4
2018-08-21T03:52:42.978Z,4
2018-08-21T03:53:09.139Z,8
2018-08-21T03:53:35.270Z,8
2018-08-21T03:54:01.450Z,4
2018-08-21T03:54:27.614Z,8
2018-08-21T03:54:53.800Z,8
2018-08-21T03:55:19.961Z,12
2018-08-21T03:55:46.099Z,8
2018-08-21T03:56:12.250Z,12
2018-08-21T03:56:38.386Z,8
2018-08-21T03:57:04.549Z,12
2018-08-21T03:57:30.681Z,12
2018-08-21T03:57:56.816Z,16
2018-08-21T03:58:22.947Z,16
2018-08-21T03:58:49.141Z,12
2018-08-21T03:59:15.280Z,16
2018-08-21T03:59:41.439Z,16
2018-08-21T04:00:07.571Z,16
2018-08-21T04:00:33.732Z,24
2018-08-21T04:00:59.895Z,24
2018-08-21T04:01:26.031Z,24
2018-08-21T04:01:52.168Z,24
2018-08-21T04:02:18.332Z,28
2018-08-21T04:02:44.468Z,28
2018-08-21T04:03:10.608Z,28
2018-08-21T04:03:36.738Z,32
2018-08-21T04:04:02.878Z,36
2018-08-21T04:04:29.011Z,36
2018-08-21T04:04:55.164Z,40
2018-08-21T04:05:21.313Z,44
2018-08-21T04:05:47.448Z,44
2018-08-21T04:06:13.590Z,48
2018-08-21T04:06:39.732Z,52
2018-08-21T04:07:05.904Z,52
2018-08-21T04:07:32.061Z,60
2018-08-21T04:07:58.203Z,60
2018-08-21T04:08:24.341Z,68
2018-08-21T04:08:50.492Z,68
2018-08-21T04:09:16.651Z,72
2018-08-21T04:09:42.836Z,76
2018-08-21T04:10:09.024Z,80
2018-08-21T04:10:35.131Z,84
2018-08-21T04:11:01.288Z,92
2018-08-21T04:11:27.426Z,96
2018-08-21T04:11:53.592Z,100
2018-08-21T04:12:19.735Z,104
2018-08-21T04:12:45.870Z,112
2018-08-21T04:13:12.008Z,116
2018-08-21T04:13:38.165Z,124
2018-08-21T04:14:04.330Z,128
2018-08-21T04:14:30.460Z,140
2018-08-21T04:14:56.628Z,144
2018-08-21T04:15:22.783Z,148
2018-08-21T04:15:48.922Z,156
2018-08-21T04:16:15.056Z,164
2018-08-21T04:16:41.219Z,172
2018-08-21T04:17:07.379Z,180
2018-08-21T04:17:33.546Z,188
2018-08-21T04:17:59.715Z,200
2018-08-21T04:18:25.852Z,204
2018-08-21T04:18:52.017Z,216
2018-08-21T04:19:18.176Z,220
2018-08-21T04:19:44.335Z,232
2018-08-21T04:20:10.487Z,240
2018-08-21T04:20:36.624Z,252
2018-08-21T04:21:02.754Z,260
2018-08-21T04:21:28.895Z,272
2018-08-21T04:21:55.031Z,284
2018-08-21T04:22:21.166Z,292
2018-08-21T04:22:47.299Z,300
2018-08-21T04:23:13.433Z,312
2018-08-21T04:23:39.592Z,324
2018-08-21T04:24:05.730Z,336
2018-08-21T04:24:31.931Z,348
2018-08-21T04:24:58.054Z,356
2018-08-21T04:25:24.224Z,372
2018-08-21T04:25:50.368Z,384
2018-08-21T04:26:16.508Z,396
2018-08-21T04:26:42.666Z,408
2018-08-21T04:27:08.800Z,424
2018-08-21T04:27:34.963Z,436
2018-08-21T04:28:01.095Z,456
2018-08-21T04:28:27.235Z,472
2018-08-21T04:28:53.393Z,488
2018-08-21T04:29:19.557Z,504
2018-08-21T04:29:45.685Z,520
2018-08-21T04:30:11.826Z,536
2018-08-21T04:30:37.964Z,552
2018-08-21T04:31:04.118Z,572
2018-08-21T04:31:30.257Z,592
2018-08-21T04:31:56.397Z,616
2018-08-21T04:32:22.557Z,636
2018-08-21T04:32:48.829Z,660
2018-08-21T04:33:14.845Z,684
2018-08-21T04:33:40.971Z,708
2018-08-21T04:34:07.124Z,732
2018-08-21T04:34:33.262Z,756
2018-08-21T04:34:59.415Z,780
2018-08-21T04:35:25.584Z,804
2018-08-21T04:35:51.738Z,828
2018-08-21T04:36:17.877Z,852
2018-08-21T04:36:44.022Z,876
2018-08-21T04:37:10.156Z,904
2018-08-21T04:37:36.309Z,924
2018-08-21T04:38:02.557Z,952
2018-08-21T04:38:28.613Z,972
2018-08-21T04:38:54.743Z,1000
2018-08-21T04:39:20.883Z,1024
2018-08-21T04:39:47.018Z,1048
2018-08-21T04:40:13.210Z,1080
2018-08-21T04:40:39.389Z,1108
2018-08-21T04:41:05.523Z,1140
2018-08-21T04:41:31.712Z,1176
2018-08-21T04:41:57.852Z,1208
2018-08-21T04:42:24.006Z,1248
2018-08-21T04:42:50.140Z,1284
2018-08-21T04:43:16.300Z,1316
2018-08-21T04:43:42.432Z,1352
2018-08-21T04:44:08.601Z,1388
2018-08-21T04:44:34.737Z,1424
2018-08-21T04:45:00.870Z,1460
2018-08-21T04:45:27.026Z,1496
2018-08-21T04:45:53.186Z,1532
2018-08-21T04:46:19.418Z,1568
2018-08-21T04:46:45.520Z,1600
2018-08-21T04:47:11.655Z,1636
2018-08-21T04:47:37.790Z,1676
2018-08-21T04:48:03.964Z,1712
2018-08-21T04:48:30.145Z,1748
2018-08-21T04:48:56.285Z,1784
2018-08-21T04:49:22.460Z,1820
2018-08-21T04:49:48.595Z,1856
2018-08-21T04:50:14.753Z,1892
2018-08-21T04:50:40.893Z,1928
2018-08-21T04:51:07.063Z,1960
2018-08-21T04:51:33.199Z,1996
2018-08-21T04:51:59.344Z,2036
2018-08-21T04:52:25.482Z,2072
2018-08-21T04:52:51.645Z,2108
2018-08-21T04:53:17.806Z,2148
2018-08-21T04:53:43.969Z,2188
2018-08-21T04:54:10.102Z,2228
2018-08-21T04:54:36.260Z,2268
2018-08-21T04:55:02.397Z,2312
2018-08-21T04:55:28.554Z,2352
2018-08-21T04:55:54.689Z,2388
2018-08-21T04:56:20.845Z,2432
2018-08-21T04:56:47.012Z,2472
2018-08-21T04:57:13.150Z,2512
2018-08-21T04:57:39.282Z,2548
2018-08-21T04:58:05.423Z,2592
2018-08-21T04:58:31.633Z,2632
2018-08-21T04:58:57.750Z,2672
2018-08-21T04:59:23.891Z,2712
2018-08-21T04:59:50.024Z,2752
2018-08-21T05:00:16.166Z,2788
2018-08-21T05:00:42.329Z,2824
2018-08-21T05:01:08.489Z,2864
2018-08-21T05:01:34.626Z,2900
2018-08-21T05:02:00.814Z,2936
2018-08-21T05:02:26.991Z,2976
2018-08-21T05:02:53.148Z,3012
2018-08-21T05:03:19.299Z,3060
2018-08-21T05:03:45.539Z,3100
2018-08-21T05:04:11.639Z,3144
2018-08-21T05:04:37.776Z,3184
2018-08-21T05:05:03.963Z,3228
2018-08-21T05:05:30.122Z,3264
2018-08-21T05:05:56.302Z,3300
2018-08-21T05:06:22.441Z,3332
2018-08-21T05:06:48.575Z,3368
2018-08-21T05:07:14.730Z,3400
2018-08-21T05:07:40.869Z,3432
2018-08-21T05:08:07.002Z,3468
2018-08-21T05:08:33.141Z,3500
2018-08-21T05:08:59.295Z,3536
2018-08-21T05:09:25.440Z,3572
2018-08-21T05:09:51.578Z,3608
2018-08-21T05:10:17.742Z,3648
2018-08-21T05:10:43.902Z,3688
2018-08-21T05:11:10.057Z,3728
2018-08-21T05:11:36.244Z,3772
2018-08-21T05:12:02.401Z,3808
2018-08-21T05:12:28.662Z,3852
2018-08-21T05:12:54.737Z,3888
2018-08-21T05:13:20.892Z,3924
2018-08-21T05:13:47.032Z,3968
2018-08-21T05:14:13.169Z,4008
2018-08-21T05:14:39.305Z,4044
2018-08-21T05:15:05.487Z,4084
2018-08-21T05:15:31.623Z,4120
2018-08-21T05:15:57.760Z,4160
2018-08-21T05:16:23.917Z,4200
2018-08-21T05:16:50.050Z,4240
2018-08-21T05:17:16.186Z,4280
2018-08-21T05:17:42.324Z,4320
2018-08-21T05:18:08.524Z,4364
2018-08-21T05:18:34.656Z,4404
2018-08-21T05:19:00.790Z,4444
2018-08-21T05:19:26.922Z,4484
2018-08-21T05:19:53.062Z,4520
2018-08-21T05:20:19.221Z,4556
2018-08-21T05:20:45.365Z,4584
2018-08-21T05:21:11.525Z,4616
2018-08-21T05:21:37.704Z,4644
2018-08-21T05:22:03.841Z,4676
2018-08-21T05:22:29.978Z,4716
2018-08-21T05:22:56.111Z,4748
2018-08-21T05:23:22.251Z,4776
2018-08-21T05:23:48.416Z,4800
2018-08-21T05:24:14.598Z,4820
2018-08-21T05:24:40.755Z,4848
2018-08-21T05:25:06.920Z,4872
2018-08-21T05:25:33.059Z,4908
2018-08-21T05:25:59.220Z,4952
2018-08-21T05:26:25.363Z,5004
2018-08-21T05:26:51.520Z,5056
2018-08-21T05:27:17.654Z,5112
2018-08-21T05:27:43.784Z,5156
2018-08-21T05:28:09.918Z,5200
2018-08-21T05:28:36.180Z,5248
2018-08-21T05:29:02.231Z,5292
2018-08-21T05:29:28.370Z,5344
2018-08-21T05:29:54.504Z,5380
2018-08-21T05:30:20.648Z,5420
2018-08-21T05:30:46.811Z,5464
2018-08-21T05:31:12.971Z,5508
2018-08-21T05:31:39.128Z,5552
2018-08-21T05:32:05.261Z,5588
2018-08-21T05:32:31.423Z,5616
2018-08-21T05:32:57.563Z,5636
2018-08-21T05:33:23.708Z,5652
2018-08-21T05:33:49.844Z,5676
2018-08-21T05:34:15.987Z,5716
2018-08-21T05:34:42.130Z,5768
2018-08-21T05:35:08.244Z,5824
2018-08-21T05:35:34.384Z,5872
2018-08-21T05:36:00.523Z,5916
2018-08-21T05:36:26.682Z,5952
2018-08-21T05:36:52.812Z,5976
2018-08-21T05:37:18.949Z,6008
2018-08-21T05:37:45.139Z,6036
2018-08-21T05:38:11.295Z,6060
2018-08-21T05:38:37.437Z,6088
2018-08-21T05:39:03.572Z,6116
2018-08-21T05:39:29.739Z,6160
2018-08-21T05:39:55.875Z,6204
2018-08-21T05:40:22.008Z,6248
2018-08-21T05:40:48.148Z,6288
2018-08-21T05:41:14.290Z,6328
2018-08-21T05:41:40.445Z,6364
2018-08-21T05:42:06.590Z,6400
2018-08-21T05:42:32.731Z,6436
2018-08-21T05:42:58.889Z,6476
2018-08-21T05:43:25.048Z,6512
2018-08-21T05:43:51.288Z,6544
2018-08-21T05:44:17.423Z,6580
2018-08-21T05:44:43.561Z,6616
2018-08-21T05:45:09.694Z,6648
2018-08-21T05:45:35.833Z,6684
2018-08-21T05:46:01.964Z,6720
2018-08-21T05:46:28.116Z,6748
2018-08-21T05:46:54.258Z,6776
2018-08-21T05:47:20.394Z,6808
2018-08-21T05:47:46.530Z,6840
2018-08-21T05:48:12.664Z,6872
2018-08-21T05:48:38.827Z,6904
2018-08-21T05:49:04.969Z,6936
2018-08-21T05:49:31.105Z,6972
2018-08-21T05:49:57.266Z,7016
2018-08-21T05:50:23.421Z,7044
2018-08-21T05:50:49.559Z,7092
2018-08-21T05:51:15.689Z,7136
2018-08-21T05:51:41.829Z,7180
2018-08-21T05:52:07.967Z,7224
2018-08-21T05:52:34.100Z,7260
2018-08-21T05:53:00.262Z,7296
2018-08-21T05:53:26.404Z,7328
2018-08-21T05:53:52.538Z,7356
2018-08-21T05:54:18.668Z,7392
2018-08-21T05:54:44.803Z,7436
2018-08-21T05:55:11.057Z,7492
2018-08-21T05:55:37.287Z,7560
2018-08-21T05:56:03.253Z,7628
2018-08-21T05:56:29.391Z,7696
2018-08-21T05:56:55.557Z,7748
2018-08-21T05:57:21.685Z,7800
2018-08-21T05:57:47.845Z,7848
2018-08-21T05:58:13.984Z,7896
2018-08-21T05:58:40.120Z,7940
2018-08-21T05:59:06.251Z,7992
2018-08-21T05:59:32.387Z,8048
2018-08-21T05:59:58.532Z,8096
2018-08-21T06:00:24.678Z,8156
2018-08-21T06:00:50.801Z,8212
2018-08-21T06:01:16.958Z,8268
2018-08-21T06:01:43.095Z,8320
2018-08-21T06:02:09.231Z,8376
2018-08-21T06:02:35.368Z,8424
2018-08-21T06:03:01.508Z,8472
2018-08-21T06:03:27.649Z,8520
2018-08-21T06:03:53.803Z,8568
2018-08-21T06:04:19.993Z,8620
2018-08-21T06:04:46.174Z,8676
2018-08-21T06:05:12.312Z,8736
2018-08-21T06:05:38.453Z,8784
2018-08-21T06:06:04.587Z,8848
2018-08-21T06:06:30.723Z,8896
2018-08-21T06:06:56.861Z,8948
2018-08-21T06:07:23.039Z,9000
2018-08-21T06:07:49.183Z,9056
2018-08-21T06:08:15.437Z,9120
2018-08-21T06:08:41.575Z,9184
2018-08-21T06:09:07.728Z,9252
2018-08-21T06:09:33.876Z,9312
2018-08-21T06:10:00.165Z,9376
2018-08-21T06:10:26.319Z,9440
2018-08-21T06:10:52.454Z,9488
2018-08-21T06:11:18.619Z,9544
2018-08-21T06:11:44.779Z,9592
2018-08-21T06:12:10.955Z,9648
2018-08-21T06:12:37.110Z,9712
2018-08-21T06:13:03.261Z,9784
2018-08-21T06:13:29.392Z,9848